createdAt,value
2022-11-20T00:01:29.617Z,100341.59
2022-11-20T00:03:58.727Z,100331.28
2022-11-20T00:06:26.380Z,100329.69
2022-11-20T00:08:56.582Z,100331.53
2022-11-20T00:11:24.807Z,100336.00
2022-11-20T00:13:53.900Z,100318.47
2022-11-20T00:16:23.555Z,100316.69
2022-11-20T00:18:50.793Z,100315.41
2022-11-20T00:21:23.385Z,100321.06
2022-11-20T00:23:51.318Z,100325.63
2022-11-20T00:26:20.198Z,100335.56
2022-11-20T00:28:58.462Z,100329.44
2022-11-20T00:31:25.737Z,100330.84
2022-11-20T00:33:53.105Z,100322.75
2022-11-20T00:36:25.485Z,100333.50
2022-11-20T00:38:57.063Z,100330.78
2022-11-20T00:41:24.889Z,100323.72
2022-11-20T00:43:53.387Z,100316.34
2022-11-20T00:46:22.602Z,100330.59
2022-11-20T00:48:50.040Z,100332.56
2022-11-20T00:51:19.432Z,100328.63
2022-11-20T00:53:46.474Z,100331.28
2022-11-20T00:56:15.698Z,100329.69
2022-11-20T00:58:44.941Z,100329.44
2022-11-20T01:01:25.165Z,100327.13
2022-11-20T01:03:53.397Z,100333.03
2022-11-20T01:06:28.908Z,100334.44
2022-11-20T01:08:58.239Z,100335.25
2022-11-20T01:11:33.715Z,100340.56
2022-11-20T01:14:02.805Z,100333.63
2022-11-20T01:16:35.571Z,100325.06
2022-11-20T01:19:04.483Z,100328.75
2022-11-20T01:21:52.216Z,100324.25
2022-11-20T01:24:20.896Z,100318.56
2022-11-20T01:26:50.691Z,100324.47
2022-11-20T01:29:19.502Z,100327.13
2022-11-20T01:31:46.530Z,100328.63
2022-11-20T01:34:15.294Z,100329.19
2022-11-20T01:36:43.243Z,100324.25
2022-11-20T01:39:21.216Z,100319.72
2022-11-20T01:42:10.071Z,100313.97
2022-11-20T01:44:54.227Z,100318.66
2022-11-20T01:47:30.148Z,100311.50
2022-11-20T01:50:03.475Z,100306.72
2022-11-20T01:52:50.524Z,100300.38
2022-11-20T01:55:28.694Z,100299.78
2022-11-20T01:57:55.841Z,100302.78
2022-11-20T02:00:22.868Z,100311.84
2022-11-20T02:02:56.708Z,100302.50
2022-11-20T02:05:26.437Z,100302.03
2022-11-20T02:07:53.784Z,100296.91
2022-11-20T02:10:21.045Z,100302.81
2022-11-20T02:13:06.203Z,100301.66
2022-11-20T02:15:34.606Z,100305.97
2022-11-20T02:18:01.516Z,100310.22
2022-11-20T02:20:28.633Z,100323.19
2022-11-20T02:23:00.632Z,100316.09
2022-11-20T02:25:28.825Z,100312.47
2022-11-20T02:27:55.690Z,100307.25
2022-11-20T02:30:22.341Z,100300.06
2022-11-20T02:32:49.011Z,100300.94
2022-11-20T02:35:18.738Z,100294.00
2022-11-20T02:37:45.998Z,100302.72
2022-11-20T02:40:12.624Z,100298.75
2022-11-20T02:42:39.281Z,100299.47
2022-11-20T02:45:06.793Z,100294.09
2022-11-20T02:47:34.152Z,100288.09
2022-11-20T02:50:00.881Z,100285.38
2022-11-20T02:52:27.559Z,100288.38
2022-11-20T02:54:54.324Z,100284.03
2022-11-20T02:57:21.044Z,100281.28
2022-11-20T02:59:47.776Z,100272.63
2022-11-20T03:02:14.381Z,100269.91
2022-11-20T03:04:41.170Z,100272.81
2022-11-20T03:07:09.397Z,100276.56
2022-11-20T03:09:36.084Z,100272.16
2022-11-20T03:12:02.708Z,100276.44
2022-11-20T03:14:29.290Z,100275.97
2022-11-20T03:16:56.852Z,100273.00
2022-11-20T03:19:24.484Z,100270.47
2022-11-20T03:21:51.011Z,100268.03
2022-11-20T03:24:17.673Z,100272.09
2022-11-20T03:26:44.418Z,100269.53
2022-11-20T03:29:11.076Z,100276.38
2022-11-20T03:31:43.067Z,100273.84
2022-11-20T03:34:12.269Z,100273.03
2022-11-20T03:36:43.403Z,100283.66
2022-11-20T03:39:10.424Z,100274.28
2022-11-20T03:41:39.321Z,100282.06
2022-11-20T03:44:10.132Z,100280.41
2022-11-20T03:46:36.954Z,100275.69
2022-11-20T03:49:04.272Z,100273.84
2022-11-20T03:51:33.429Z,100272.59
2022-11-20T03:54:03.135Z,100259.16
2022-11-20T03:56:30.547Z,100268.03
2022-11-20T03:58:57.703Z,100256.13
2022-11-20T04:01:27.463Z,100263.88
2022-11-20T04:03:55.794Z,100255.91
2022-11-20T04:06:30.752Z,100266.75
2022-11-20T04:08:59.411Z,100267.25
2022-11-20T04:11:31.407Z,100273.78
2022-11-20T04:14:00.356Z,100264.59
2022-11-20T04:16:29.772Z,100276.94
2022-11-20T04:18:58.785Z,100260.53
2022-11-20T04:21:26.436Z,100261.34
2022-11-20T04:23:54.046Z,100264.13
2022-11-20T04:26:22.075Z,100261.81
2022-11-20T04:28:48.742Z,100257.06
2022-11-20T04:31:21.389Z,100257.41
2022-11-20T04:33:48.362Z,100252.47
2022-11-20T04:36:23.925Z,100252.78
2022-11-20T04:38:57.350Z,100258.09
2022-11-20T04:41:30.526Z,100259.97
2022-11-20T04:44:02.820Z,100258.34
2022-11-20T04:46:30.970Z,100255.69
2022-11-20T04:48:57.576Z,100250.38
2022-11-20T04:51:24.761Z,100254.19
2022-11-20T04:53:51.612Z,100254.78
2022-11-20T04:56:18.754Z,100263.34
2022-11-20T04:58:45.537Z,100250.03
2022-11-20T05:01:17.852Z,100246.91
2022-11-20T05:03:45.841Z,100246.09
2022-11-20T05:06:14.942Z,100242.72
2022-11-20T05:08:42.203Z,100238.59
2022-11-20T05:11:14.053Z,100229.44
2022-11-20T05:13:41.381Z,100234.25
2022-11-20T05:16:11.032Z,100231.13
2022-11-20T05:18:39.020Z,100239.69
2022-11-20T05:21:06.486Z,100240.84
2022-11-20T05:23:34.121Z,100240.16
2022-11-20T05:26:01.866Z,100238.53
2022-11-20T05:28:30.145Z,100230.78
2022-11-20T05:30:57.002Z,100234.38
2022-11-20T05:33:23.829Z,100233.66
2022-11-20T05:35:50.440Z,100232.28
2022-11-20T05:38:16.972Z,100231.25
2022-11-20T05:40:43.745Z,100232.78
2022-11-20T05:43:10.302Z,100232.66
2022-11-20T05:45:36.950Z,100227.22
2022-11-20T05:48:04.098Z,100226.31
2022-11-20T05:50:30.810Z,100225.59
2022-11-20T05:53:00.557Z,100229.78
2022-11-20T05:55:27.683Z,100227.69
2022-11-20T05:57:55.870Z,100221.22
2022-11-20T06:00:23.636Z,100220.78
2022-11-20T06:02:50.378Z,100229.34
2022-11-20T06:05:17.214Z,100218.69
2022-11-20T06:07:43.877Z,100217.06
2022-11-20T06:10:10.529Z,100208.41
2022-11-20T06:12:37.071Z,100206.88
2022-11-20T06:15:05.946Z,100215.34
2022-11-20T06:17:32.755Z,100221.47
2022-11-20T06:19:59.381Z,100226.31
2022-11-20T06:22:26.064Z,100220.88
2022-11-20T06:24:52.644Z,100222.16
2022-11-20T06:27:19.338Z,100214.03
2022-11-20T06:29:45.926Z,100219.47
2022-11-20T06:32:12.559Z,100221.53
2022-11-20T06:34:39.141Z,100220.50
2022-11-20T06:37:05.760Z,100228.28
2022-11-20T06:39:32.303Z,100225.34
2022-11-20T06:41:59.473Z,100220.03
2022-11-20T06:44:26.782Z,100221.31
2022-11-20T06:46:53.430Z,100220.88
2022-11-20T06:49:20.360Z,100223.41
2022-11-20T06:51:47.112Z,100231.59
2022-11-20T06:54:13.742Z,100229.66
2022-11-20T06:56:40.415Z,100231.25
2022-11-20T06:59:08.250Z,100233.00
2022-11-20T07:01:35.908Z,100226.28
2022-11-20T07:04:04.124Z,100232.19
2022-11-20T07:06:30.913Z,100235.16
2022-11-20T07:08:58.017Z,100227.44
2022-11-20T07:11:24.775Z,100239.44
2022-11-20T07:13:51.470Z,100238.53
2022-11-20T07:16:18.191Z,100234.84
2022-11-20T07:18:49.966Z,100233.19
2022-11-20T07:21:17.232Z,100237.94
2022-11-20T07:23:43.828Z,100238.88
2022-11-20T07:26:11.708Z,100241.31
2022-11-20T07:28:38.508Z,100242.47
2022-11-20T07:31:06.010Z,100246.66
2022-11-20T07:33:32.794Z,100237.63
2022-11-20T07:36:01.102Z,100237.84
2022-11-20T07:38:27.893Z,100237.84
2022-11-20T07:40:56.743Z,100237.84
2022-11-20T07:43:23.346Z,100236.81
2022-11-20T07:45:49.990Z,100236.09
2022-11-20T07:48:16.620Z,100240.25
2022-11-20T07:50:43.233Z,100235.38
2022-11-20T07:53:09.933Z,100238.47
2022-11-20T07:55:36.438Z,100245.63
2022-11-20T07:58:03.002Z,100236.44
2022-11-20T08:00:29.627Z,100247.78
2022-11-20T08:02:56.384Z,100252.97
2022-11-20T08:05:23.490Z,100253.16
2022-11-20T08:07:50.285Z,100248.97
2022-11-20T08:10:17.623Z,100255.47
2022-11-20T08:13:08.007Z,100252.66
2022-11-20T08:15:35.581Z,100256.47
2022-11-20T08:20:54.084Z,100269.44
2022-11-20T08:23:20.680Z,100264.63
2022-11-20T08:25:51.923Z,100273.75
2022-11-20T08:28:21.656Z,100274.91
2022-11-20T08:30:50.237Z,100276.34
2022-11-20T08:33:18.213Z,100276.22
2022-11-20T08:35:44.975Z,100285.34
2022-11-20T08:38:11.634Z,100289.06
2022-11-20T08:40:38.219Z,100285.03
2022-11-20T08:43:05.411Z,100287.44
2022-11-20T08:45:34.910Z,100289.63
2022-11-20T08:48:02.448Z,100286.88
2022-11-20T08:50:29.524Z,100292.25
2022-11-20T08:52:56.144Z,100292.97
2022-11-20T08:55:22.752Z,100299.34
2022-11-20T08:57:51.018Z,100301.34
2022-11-20T09:00:18.117Z,100304.03
2022-11-20T09:02:44.693Z,100308.06
2022-11-20T09:05:11.351Z,100306.19
2022-11-20T09:07:38.044Z,100307.50
2022-11-20T09:12:52.775Z,100302.50
2022-11-20T09:15:20.360Z,100304.09
2022-11-20T09:17:57.946Z,100313.16
2022-11-20T09:20:25.667Z,100304.25
2022-11-20T09:22:52.372Z,100311.44
2022-11-20T09:25:19.788Z,100313.22
2022-11-20T09:27:47.156Z,100311.13
2022-11-20T09:30:15.600Z,100319.44
2022-11-20T09:32:42.975Z,100311.31
2022-11-20T09:35:10.249Z,100315.03
2022-11-20T09:37:36.912Z,100324.19
2022-11-20T09:40:04.113Z,100315.31
2022-11-20T09:42:44.438Z,100330.16
2022-11-20T09:45:39.041Z,100319.94
2022-11-20T09:48:13.794Z,100321.81
2022-11-20T09:51:04.576Z,100313.09
2022-11-20T09:53:48.568Z,100316.91
2022-11-20T09:56:19.712Z,100312.25
2022-11-20T09:58:52.585Z,100314.09
2022-11-20T10:01:22.088Z,100309.44
2022-11-20T10:04:00.774Z,100312.78
2022-11-20T10:06:40.759Z,100316.59
2022-11-20T10:09:13.636Z,100316.84
2022-11-20T10:11:47.364Z,100310.72
2022-11-20T10:14:36.432Z,100321.72
2022-11-20T10:17:19.950Z,100326.03
2022-11-20T10:20:00.807Z,100329.31
2022-11-20T10:22:49.354Z,100312.47
2022-11-20T10:25:17.128Z,100307.16
2022-11-20T10:28:17.368Z,100303.06
2022-11-20T10:30:46.800Z,100304.81
2022-11-20T10:33:24.350Z,100297.75
2022-11-20T10:36:17.512Z,100304.84
2022-11-20T10:38:47.942Z,100302.44
2022-11-20T10:41:27.062Z,100299.69
2022-11-20T10:44:10.160Z,100289.31
2022-11-20T10:46:44.923Z,100285.50
2022-11-20T10:49:15.794Z,100290.28
2022-11-20T10:52:05.656Z,100281.13
2022-11-20T10:54:59.354Z,100283.94
2022-11-20T10:58:02.931Z,100274.75
2022-11-20T11:00:33.059Z,100278.00
2022-11-20T11:03:04.063Z,100273.88
2022-11-20T11:05:52.334Z,100270.25
2022-11-20T11:08:22.628Z,100278.97
2022-11-20T11:10:54.304Z,100278.63
2022-11-20T11:13:26.473Z,100268.81
2022-11-20T11:15:53.843Z,100264.25
2022-11-20T11:18:28.220Z,100265.38
2022-11-20T11:20:57.172Z,100253.81
2022-11-20T11:23:35.329Z,100255.75
2022-11-20T11:26:05.129Z,100237.28
2022-11-20T11:28:31.890Z,100230.13
2022-11-20T11:30:58.712Z,100237.50
2022-11-20T11:33:30.147Z,100218.66
2022-11-20T11:36:00.451Z,100220.31
2022-11-20T11:38:33.785Z,100219.81
2022-11-20T11:41:00.738Z,100221.38
2022-11-20T11:43:50.198Z,100231.69
2022-11-20T11:46:34.569Z,100226.56
2022-11-20T11:49:10.357Z,100228.41
2022-11-20T11:52:15.672Z,100224.69
2022-11-20T11:54:58.033Z,100221.50
2022-11-20T11:57:43.155Z,100216.44
2022-11-20T12:00:19.134Z,100215.59
2022-11-20T12:02:45.714Z,100208.09
2022-11-20T12:05:24.472Z,100208.09
2022-11-20T12:08:06.941Z,100200.06
2022-11-20T12:10:49.567Z,100196.31
2022-11-20T12:14:02.949Z,100188.34
2022-11-20T12:16:35.773Z,100190.59
2022-11-20T12:19:02.551Z,100189.28
2022-11-20T12:21:43.363Z,100188.50
2022-11-20T12:24:37.638Z,100191.19
2022-11-20T12:27:04.712Z,100191.22
2022-11-20T12:29:58.348Z,100189.81
2022-11-20T12:32:58.832Z,100190.13
2022-11-20T12:35:31.633Z,100194.66
2022-11-20T12:38:29.080Z,100192.50
2022-11-20T12:41:13.796Z,100184.44
2022-11-20T12:44:30.764Z,100180.38
2022-11-20T12:47:20.091Z,100177.91
2022-11-20T12:50:07.270Z,100184.56
2022-11-20T12:52:51.272Z,100182.13
2022-11-20T12:55:34.719Z,100188.53
2022-11-20T12:58:17.495Z,100185.56
2022-11-20T13:01:01.480Z,100188.00
2022-11-20T13:03:40.111Z,100185.31
2022-11-20T13:06:27.081Z,100181.84
2022-11-20T13:08:56.867Z,100180.22
2022-11-20T13:11:40.773Z,100172.19
2022-11-20T13:14:44.525Z,100158.00
2022-11-20T13:17:18.685Z,100161.22
2022-11-20T13:19:57.260Z,100150.53
2022-11-20T13:22:55.594Z,100148.44
2022-11-20T13:25:25.254Z,100150.59
2022-11-20T13:27:51.798Z,100146.31
2022-11-20T13:30:21.555Z,100137.22
2022-11-20T13:32:54.388Z,100140.97
2022-11-20T13:35:36.198Z,100129.47
2022-11-20T13:38:05.985Z,100130.81
2022-11-20T13:40:32.954Z,100125.97
2022-11-20T13:43:38.032Z,100117.66
2022-11-20T13:46:07.708Z,100117.41
2022-11-20T13:48:35.758Z,100120.63
2022-11-20T13:51:09.569Z,100109.91
2022-11-20T13:54:00.684Z,100109.63
2022-11-20T13:56:51.997Z,100113.66
2022-11-20T13:59:56.433Z,100118.47
2022-11-20T14:02:26.026Z,100105.31
2022-11-20T14:04:54.863Z,100099.97
2022-11-20T14:07:25.325Z,100106.34
2022-11-20T14:09:57.520Z,100105.25
2022-11-20T14:12:30.693Z,100095.41
2022-11-20T14:14:57.518Z,100096.72
2022-11-20T14:17:30.306Z,100093.72
2022-11-20T14:20:06.034Z,100098.50
2022-11-20T14:22:33.020Z,100093.13
2022-11-20T14:25:13.981Z,100092.81
2022-11-20T14:27:49.021Z,100094.63
2022-11-20T14:30:24.467Z,100094.88
2022-11-20T14:32:52.640Z,100090.81
2022-11-20T14:35:26.256Z,100092.38
2022-11-20T14:37:53.951Z,100097.66
2022-11-20T14:40:27.589Z,100102.13
2022-11-20T14:42:54.563Z,100088.22
2022-11-20T14:45:22.986Z,100086.59
2022-11-20T14:47:51.154Z,100080.47
2022-11-20T14:50:29.561Z,100081.00
2022-11-20T14:53:01.402Z,100083.13
2022-11-20T14:55:36.504Z,100079.97
2022-11-20T14:58:06.787Z,100077.28
2022-11-20T15:00:36.141Z,100080.75
2022-11-20T15:03:02.700Z,100078.00
2022-11-20T15:05:49.945Z,100075.31
2022-11-20T15:08:18.072Z,100074.47
2022-11-20T15:10:52.162Z,100070.69
2022-11-20T15:13:30.477Z,100072.81
2022-11-20T15:15:59.096Z,100068.50
2022-11-20T15:18:40.471Z,100067.69
2022-11-20T15:21:18.999Z,100063.69
2022-11-20T15:23:45.912Z,100066.34
2022-11-20T15:26:19.912Z,100070.06
2022-11-20T15:28:51.437Z,100066.06
2022-11-20T15:31:21.871Z,100058.72
2022-11-20T15:33:48.858Z,100064.06
2022-11-20T15:36:16.564Z,100063.03
2022-11-20T15:38:43.233Z,100061.94
2022-11-20T15:41:11.227Z,100056.59
2022-11-20T15:43:38.059Z,100053.38
2022-11-20T15:46:10.268Z,100046.50
2022-11-20T15:48:48.319Z,100050.25
2022-11-20T15:51:22.068Z,100044.91
2022-11-20T15:53:48.708Z,100041.69
2022-11-20T15:56:15.742Z,100043.31
2022-11-20T15:58:42.568Z,100040.09
2022-11-20T16:01:14.973Z,100033.06
2022-11-20T16:03:42.301Z,100038.97
2022-11-20T16:06:08.858Z,100030.94
2022-11-20T16:08:35.789Z,100039.25
2022-11-20T16:11:02.997Z,100029.28
2022-11-20T16:13:50.194Z,100030.63
2022-11-20T16:16:23.468Z,100029.78
2022-11-20T16:18:51.054Z,100025.78
2022-11-20T16:21:18.163Z,100016.97
2022-11-20T16:23:44.932Z,100017.19
2022-11-20T16:26:17.819Z,100015.78
2022-11-20T16:28:44.836Z,100015.22
2022-11-20T16:31:16.800Z,100018.44
2022-11-20T16:33:44.083Z,100016.06
2022-11-20T16:36:15.970Z,100014.19
2022-11-20T16:38:43.029Z,100021.63
2022-11-20T16:41:14.380Z,100011.50
2022-11-20T16:43:49.534Z,100004.59
2022-11-20T16:46:17.363Z,100008.59
2022-11-20T16:48:43.961Z,100003.81
2022-11-20T16:51:12.133Z,100001.41
2022-11-20T16:53:42.680Z,99994.72
2022-11-20T16:56:17.972Z,99998.75
2022-11-20T16:58:45.812Z,99994.22
2022-11-20T17:01:16.227Z,99994.47
2022-11-20T17:03:44.663Z,100002.47
2022-11-20T17:06:18.320Z,99999.25
2022-11-20T17:08:46.405Z,100004.53
2022-11-20T17:11:15.930Z,99992.25
2022-11-20T17:13:43.036Z,99987.94
2022-11-20T17:16:12.862Z,99985.75
2022-11-20T17:18:39.590Z,99976.38
2022-11-20T17:21:07.557Z,99969.16
2022-11-20T17:23:42.284Z,99964.38
2022-11-20T17:26:13.925Z,99962.78
2022-11-20T17:28:41.436Z,99970.28
2022-11-20T17:31:17.564Z,99966.25
2022-11-20T17:33:46.432Z,99972.41
2022-11-20T17:36:16.225Z,99964.94
2022-11-20T17:38:43.204Z,99964.34
2022-11-20T17:41:20.555Z,99959.78
2022-11-20T17:43:47.342Z,99948.81
2022-11-20T17:46:19.198Z,99953.66
2022-11-20T17:48:49.529Z,99950.72
2022-11-20T17:51:22.214Z,99943.78
2022-11-20T17:53:51.481Z,99948.34
2022-11-20T17:56:36.677Z,99942.94
2022-11-20T17:59:07.872Z,99943.69
2022-11-20T18:01:35.512Z,99942.28
2022-11-20T18:04:02.854Z,99941.88
2022-11-20T18:06:31.215Z,99932.31
2022-11-20T18:08:59.646Z,99916.28
2022-11-20T18:11:33.843Z,99925.13
2022-11-20T18:14:21.404Z,99926.97
2022-11-20T18:16:51.425Z,99927.75
2022-11-20T18:19:21.376Z,99923.22
2022-11-20T18:21:48.080Z,99918.44
2022-11-20T18:24:15.362Z,99920.00
2022-11-20T18:26:44.520Z,99913.56
2022-11-20T18:29:12.796Z,99914.16
2022-11-20T18:31:39.946Z,99918.34
2022-11-20T18:34:11.679Z,99924.16
2022-11-20T18:36:38.927Z,99916.03
2022-11-20T18:39:05.959Z,99910.81
2022-11-20T18:41:51.079Z,99907.38
2022-11-20T18:44:41.700Z,99906.88
2022-11-20T18:47:14.617Z,99906.25
2022-11-20T18:49:50.642Z,99906.59
2022-11-20T18:52:17.825Z,99892.72
2022-11-20T18:54:44.547Z,99897.56
2022-11-20T18:57:14.657Z,99894.34
2022-11-20T18:59:44.552Z,99888.47
2022-11-20T19:02:16.160Z,99883.72
2022-11-20T19:04:43.445Z,99883.72
2022-11-20T19:07:12.205Z,99883.53
2022-11-20T19:09:41.099Z,99879.50
2022-11-20T19:12:12.426Z,99885.38
2022-11-20T19:14:39.416Z,99887.34
2022-11-20T19:17:07.900Z,99884.94
2022-11-20T19:19:35.982Z,99881.75
2022-11-20T19:22:04.256Z,99882.22
2022-11-20T19:24:30.965Z,99887.59
2022-11-20T19:26:57.684Z,99890.56
2022-11-20T19:29:25.750Z,99890.78
2022-11-20T19:31:53.610Z,99888.13
2022-11-20T19:34:20.559Z,99887.03
2022-11-20T19:36:47.585Z,99883.34
2022-11-20T19:39:14.263Z,99887.34
2022-11-20T19:41:41.617Z,99893.47
2022-11-20T19:44:11.111Z,99895.59
2022-11-20T19:46:39.353Z,99893.47
2022-11-20T19:49:10.125Z,99891.09
2022-11-20T19:51:39.305Z,99876.84
2022-11-20T19:54:06.963Z,99885.34
2022-11-20T19:56:34.295Z,99876.88
2022-11-20T19:59:01.394Z,99875.88
2022-11-20T20:01:30.746Z,99872.13
2022-11-20T20:04:02.526Z,99853.91
2022-11-20T20:06:30.160Z,99868.47
2022-11-20T20:09:02.733Z,99855.34
2022-11-20T20:11:31.548Z,99858.78
2022-11-20T20:14:01.250Z,99862.22
2022-11-20T20:16:28.824Z,99870.47
2022-11-20T20:18:57.603Z,99873.69
2022-11-20T20:21:24.503Z,99870.22
2022-11-20T20:23:56.028Z,99871.88
2022-11-20T20:26:28.662Z,99877.22
2022-11-20T20:28:55.790Z,99874.03
2022-11-20T20:31:27.791Z,99873.81
2022-11-20T20:33:55.211Z,99858.09
2022-11-20T20:36:24.067Z,99864.94
2022-11-20T20:39:05.210Z,99867.03
2022-11-20T20:41:32.345Z,99864.59
2022-11-20T20:44:17.753Z,99854.47
2022-11-20T20:46:44.360Z,99845.22
2022-11-20T20:49:10.993Z,99854.66
2022-11-20T20:51:37.684Z,99853.94
2022-11-20T20:54:04.775Z,99857.31
2022-11-20T20:56:31.596Z,99859.19
2022-11-20T20:58:58.433Z,99863.13
2022-11-20T21:01:28.514Z,99872.97
2022-11-20T21:03:56.290Z,99868.72
2022-11-20T21:06:22.981Z,99874.03
2022-11-20T21:08:49.691Z,99867.41
2022-11-20T21:11:20.044Z,99863.19
2022-11-20T21:13:47.467Z,99869.88
2022-11-20T21:16:15.363Z,99874.34
2022-11-20T21:18:42.104Z,99869.00
2022-11-20T21:21:32.068Z,99873.06
2022-11-20T21:23:58.642Z,99871.94
2022-11-20T21:26:25.315Z,99868.16
2022-11-20T21:28:51.965Z,99876.94
2022-11-20T21:31:28.828Z,99869.19
2022-11-20T21:33:56.575Z,99873.53
2022-11-20T21:36:26.118Z,99879.19
2022-11-20T21:38:56.584Z,99871.66
2022-11-20T21:41:27.307Z,99862.31
2022-11-20T21:44:29.000Z,99857.63
2022-11-20T21:46:44.380Z,99860.22
2022-11-20T21:49:11.620Z,99868.72
2022-11-20T21:51:38.764Z,99874.03
2022-11-20T21:54:08.329Z,99871.94
2022-11-20T21:56:35.372Z,99877.81
2022-11-20T21:59:02.164Z,99863.13
2022-11-20T22:01:30.385Z,99868.72
2022-11-20T22:03:59.845Z,99862.88
2022-11-20T22:06:30.250Z,99868.03
2022-11-20T22:08:56.868Z,99867.81
2022-11-20T22:11:23.777Z,99865.09
2022-11-20T22:14:08.895Z,99860.06
2022-11-20T22:16:36.864Z,99857.72
2022-11-20T22:19:04.626Z,99860.38
2022-11-20T22:21:38.195Z,99863.91
2022-11-20T22:24:04.934Z,99862.34
2022-11-20T22:26:38.804Z,99857.00
2022-11-20T22:29:07.229Z,99849.31
2022-11-20T22:31:34.091Z,99858.19
2022-11-20T22:34:02.333Z,99855.88
2022-11-20T22:36:30.524Z,99851.66
2022-11-20T22:38:58.215Z,99849.81
2022-11-20T22:41:27.437Z,99842.34
2022-11-20T22:44:01.855Z,99850.34
2022-11-20T22:46:31.238Z,99843.44
2022-11-20T22:49:00.103Z,99850.94
2022-11-20T22:51:32.797Z,99856.78
2022-11-20T22:53:59.955Z,99849.34
2022-11-20T22:56:27.192Z,99857.03
2022-11-20T22:58:54.755Z,99859.50
2022-11-20T23:01:23.828Z,99862.44
2022-11-20T23:03:52.630Z,99860.00
2022-11-20T23:06:21.630Z,99857.91
2022-11-20T23:08:49.225Z,99863.81
2022-11-20T23:11:22.454Z,99860.38
2022-11-20T23:13:57.940Z,99853.22
2022-11-20T23:16:27.117Z,99855.06
2022-11-20T23:18:59.975Z,99861.69
2022-11-20T23:21:27.324Z,99857.94
2022-11-20T23:23:56.349Z,99855.81
2022-11-20T23:26:25.779Z,99854.78
2022-11-20T23:28:57.822Z,99848.06
2022-11-20T23:31:25.856Z,99851.03
2022-11-20T23:33:52.568Z,99845.22
2022-11-20T23:36:19.351Z,99845.00
2022-11-20T23:38:45.950Z,99841.56
2022-11-20T23:41:13.328Z,99845.81
2022-11-20T23:43:40.387Z,99843.53
2022-11-20T23:46:07.105Z,99850.75
2022-11-20T23:48:35.905Z,99846.53
2022-11-20T23:51:03.346Z,99837.50
2022-11-20T23:53:30.505Z,99845.78
2022-11-20T23:55:59.587Z,99854.38
2022-11-20T23:58:34.942Z,99841.88
